Time;durP1;ratioP1;P1;durP2;ratioP2;P2;SDS_P1;SDS_P2;PMS_P1;PMS_P2;Temp;Humidity;BMP_temperature;BMP_pressure;BME280_temperature;BME280_humidity;BME280_pressure;Samples;Min_cycle;Max_cycle;Signal;HPM_P1;HPM_P2
2022/12/19 00:30:40;;;;;;;19.42;7.97;;;0.50;99.90;;;;;;6351305;22;20018;-89
2022/12/19 00:33:06;;;;;;;21.17;9.05;;;0.50;99.90;;;;;;6322807;22;20018;-92
2022/12/19 00:35:32;;;;;;;21.20;9.05;;;0.50;99.90;;;;;;6347011;22;20097;-89
2022/12/19 00:37:58;;;;;;;21.73;8.98;;;0.50;99.90;;;;;;6321839;22;20021;-89
2022/12/19 00:40:48;;;;;;;19.55;8.40;;;0.50;99.90;;;;;;6346226;22;20111;-90
2022/12/19 00:43:38;;;;;;;21.35;9.05;;;0.50;99.90;;;;;;6347265;22;20335;-89
2022/12/19 00:46:07;;;;;;;17.80;8.35;;;0.50;99.90;;;;;;6320587;22;20018;-90
2022/12/19 00:48:33;;;;;;;21.48;8.38;;;0.60;99.90;;;;;;6321524;22;20020;-93
2022/12/19 00:51:01;;;;;;;18.80;9.00;;;0.60;99.90;;;;;;6320588;22;20063;-96
2022/12/19 00:53:28;;;;;;;21.83;9.23;;;0.60;99.90;;;;;;6320250;22;20022;-92
2022/12/19 00:56:04;;;;;;;21.77;9.23;;;0.60;99.90;;;;;;6317456;22;20020;-95
2022/12/19 00:58:33;;;;;;;24.98;9.00;;;0.60;99.90;;;;;;6317699;22;20010;-86
2022/12/19 01:01:08;;;;;;;24.10;9.05;;;0.60;99.90;;;;;;6319654;22;20097;-94
2022/12/19 01:03:34;;;;;;;19.38;8.52;;;0.60;99.90;;;;;;6319037;22;20060;-90
2022/12/19 01:06:03;;;;;;;19.08;8.75;;;0.60;99.90;;;;;;6318914;22;20018;-92
2022/12/19 01:08:31;;;;;;;20.42;8.73;;;0.60;99.90;;;;;;6322550;22;20040;-88
2022/12/19 01:10:57;;;;;;;18.33;8.57;;;0.70;99.90;;;;;;6320713;22;20026;-90
2022/12/19 01:13:27;;;;;;;23.23;8.93;;;0.60;99.90;;;;;;6346213;22;20066;-89
2022/12/19 01:15:53;;;;;;;19.30;8.15;;;0.60;99.90;;;;;;6345398;22;20075;-93
2022/12/19 01:18:18;;;;;;;17.95;8.13;;;0.60;99.90;;;;;;6348078;22;20500;-94
2022/12/19 01:20:48;;;;;;;22.92;9.60;;;0.60;99.90;;;;;;6345593;22;20344;-92
2022/12/19 01:23:15;;;;;;;19.85;9.40;;;0.70;99.90;;;;;;6348666;22;20447;-96
2022/12/19 01:25:41;;;;;;;;;;;0.70;99.90;;;;;;6348541;22;20431;-92
2022/12/19 01:28:12;;;;;;;20.60;8.68;;;0.70;99.90;;;;;;6296523;22;19914;-87
2022/12/19 01:30:39;;;;;;;18.33;8.10;;;0.70;99.90;;;;;;6320827;22;20022;-92
2022/12/19 01:33:07;;;;;;;18.08;9.45;;;0.70;99.90;;;;;;6292763;22;20022;-96
2022/12/19 01:35:33;;;;;;;21.40;8.82;;;0.70;99.90;;;;;;6317610;22;20347;-90
2022/12/19 01:37:58;;;;;;;23.10;9.25;;;0.70;99.90;;;;;;6343775;22;20016;-93
2022/12/19 01:40:24;;;;;;;19.30;8.45;;;0.70;99.90;;;;;;6344421;22;20018;-93
2022/12/19 01:42:53;;;;;;;19.67;8.93;;;0.70;99.90;;;;;;6292965;22;20045;-88
2022/12/19 01:45:33;;;;;;;19.55;8.77;;;0.80;99.90;;;;;;6343402;22;20018;-93
2022/12/19 01:48:06;;;;;;;18.90;9.10;;;0.80;99.90;;;;;;6317249;22;20094;-87
2022/12/19 01:50:43;;;;;;;20.25;9.35;;;0.80;99.90;;;;;;6369591;22;20022;-89
2022/12/19 01:53:12;;;;;;;18.52;8.73;;;0.80;99.90;;;;;;6317187;22;20020;-87
2022/12/19 01:55:40;;;;;;;22.38;8.93;;;0.80;99.90;;;;;;6317554;22;20101;-93
2022/12/19 01:58:07;;;;;;;19.90;9.07;;;0.90;99.90;;;;;;6344434;22;20027;-87
2022/12/19 02:00:33;;;;;;;21.92;9.45;;;0.80;99.90;;;;;;6317162;22;20070;-92
2022/12/19 02:03:01;;;;;;;26.08;10.43;;;0.90;99.90;;;;;;6343775;22;20067;-87
2022/12/19 02:05:28;;;;;;;22.13;10.30;;;0.90;99.90;;;;;;6318812;22;20063;-92
2022/12/19 02:07:53;;;;;;;21.50;9.68;;;0.90;99.90;;;;;;6345222;22;20110;-87
2022/12/19 02:10:22;;;;;;;21.15;9.07;;;0.90;99.90;;;;;;6346646;22;20018;-95
2022/12/19 02:12:48;;;;;;;23.35;10.10;;;0.90;99.90;;;;;;6344936;22;20010;-93
2022/12/19 02:15:15;;;;;;;21.75;9.23;;;0.90;99.90;;;;;;6373339;22;20010;-91
2022/12/19 02:17:59;;;;;;;;;;;0.90;99.90;;;;;;6319563;22;20110;-94
2022/12/19 02:20:24;;;;;;;19.98;8.45;;;1.00;99.90;;;;;;6345541;22;19923;-93
2022/12/19 02:22:59;;;;;;;21.83;9.57;;;1.00;99.90;;;;;;6345602;22;20036;-95
2022/12/19 02:25:40;;;;;;;20.20;9.82;;;1.00;99.90;;;;;;6320038;22;20022;-92
2022/12/19 02:28:06;;;;;;;21.80;8.05;;;1.00;99.90;;;;;;6372688;22;20021;-87
2022/12/19 02:30:58;;;;;;;22.25;8.73;;;1.00;99.90;;;;;;6318924;22;20023;-85
2022/12/19 02:33:42;;;;;;;16.75;7.80;;;1.00;99.90;;;;;;6286809;22;20014;-88
2022/12/19 02:36:35;;;;;;;18.92;9.27;;;1.00;99.90;;;;;;6319126;22;20014;-88
2022/12/19 02:39:13;;;;;;;20.88;8.70;;;1.00;99.90;;;;;;6318910;22;20014;-94
2022/12/19 02:41:51;;;;;;;21.58;9.18;;;1.00;99.90;;;;;;6346289;22;20022;-90
2022/12/19 02:44:42;;;;;;;19.90;8.90;;;1.00;99.90;;;;;;6320195;22;20041;-95
2022/12/19 02:47:08;;;;;;;21.83;9.10;;;1.00;99.90;;;;;;6319020;22;20089;-89
2022/12/19 02:49:35;;;;;;;22.40;8.75;;;1.00;99.90;;;;;;6319062;22;20022;-92
2022/12/19 02:52:11;;;;;;;21.33;8.65;;;1.10;99.90;;;;;;6319223;22;20029;-91
2022/12/19 02:54:38;;;;;;;18.08;8.93;;;1.00;99.90;;;;;;6344896;22;20453;-93
2022/12/19 02:57:15;;;;;;;20.50;8.70;;;1.10;99.90;;;;;;6344587;22;20010;-94
2022/12/19 02:59:58;;;;;;;19.23;8.88;;;1.10;99.90;;;;;;6318819;22;20021;-87
2022/12/19 03:02:41;;;;;;;20.73;10.02;;;1.10;99.90;;;;;;6318692;22;20046;-89
2022/12/19 03:05:40;;;;;;;17.98;8.65;;;1.10;99.90;;;;;;6318823;22;20075;-87
2022/12/19 03:08:28;;;;;;;24.05;10.15;;;1.10;99.90;;;;;;6321528;22;20015;-92
2022/12/19 03:13:44;;;;;;;20.73;8.70;;;1.10;99.90;;;;;;6285756;22;20053;-94
2022/12/19 03:16:11;;;;;;;22.02;9.75;;;1.10;99.90;;;;;;6255686;22;20027;-95
2022/12/19 03:18:37;;;;;;;25.05;9.23;;;1.10;99.90;;;;;;6255446;22;20073;-92
2022/12/19 03:21:03;;;;;;;18.40;9.35;;;1.20;99.90;;;;;;6259609;22;20022;-94
2022/12/19 03:23:30;;;;;;;22.83;9.00;;;1.20;99.90;;;;;;6257704;22;20058;-91
2022/12/19 03:25:58;;;;;;;;;;;1.20;99.90;;;;;;6236082;22;20027;-93
2022/12/19 03:28:45;;;;;;;18.55;9.60;;;1.20;99.90;;;;;;6257320;22;19938;-93
2022/12/19 03:31:13;;;;;;;17.42;8.50;;;1.20;99.90;;;;;;6257413;22;20012;-96
2022/12/19 03:33:40;;;;;;;21.90;8.75;;;1.30;99.90;;;;;;6257586;22;20090;-96
2022/12/19 03:36:14;;;;;;;19.60;9.25;;;1.30;99.90;;;;;;6263755;22;20020;-93
2022/12/19 03:38:44;;;;;;;18.75;8.27;;;1.30;99.90;;;;;;6261468;22;20023;-90
2022/12/19 03:41:13;;;;;;;19.10;8.57;;;1.30;99.90;;;;;;6264662;22;20019;-90
2022/12/19 03:43:41;;;;;;;20.23;9.10;;;1.40;99.90;;;;;;6239950;22;20069;-95
2022/12/19 03:46:25;;;;;;;18.15;7.78;;;1.30;99.90;;;;;;6261931;22;20027;-96
2022/12/19 03:48:57;;;;;;;16.25;7.95;;;1.40;99.90;;;;;;6261220;22;20068;-96
2022/12/19 03:51:31;;;;;;;21.85;8.50;;;1.40;99.90;;;;;;6257384;22;20051;-91
2022/12/19 03:54:27;;;;;;;25.52;10.15;;;1.40;99.90;;;;;;6259128;22;20023;-89
2022/12/19 03:57:11;;;;;;;18.92;8.63;;;1.50;99.90;;;;;;6253154;22;20011;-87
2022/12/19 03:59:43;;;;;;;18.38;9.27;;;1.50;99.90;;;;;;6252505;22;20016;-96
2022/12/19 04:02:31;;;;;;;24.02;10.07;;;1.50;99.90;;;;;;6255180;22;20018;-95
2022/12/19 04:05:10;;;;;;;20.88;9.60;;;1.50;99.90;;;;;;6253476;22;20016;-94
2022/12/19 04:07:38;;;;;;;20.33;8.75;;;1.50;99.90;;;;;;6253309;22;20045;-93
2022/12/19 04:10:13;;;;;;;19.83;8.73;;;1.60;99.90;;;;;;6253117;22;20525;-96
2022/12/19 04:12:49;;;;;;;17.50;8.50;;;1.50;99.90;;;;;;6252786;22;20047;-94
2022/12/19 04:15:16;;;;;;;21.23;9.00;;;1.60;99.90;;;;;;6251879;22;20069;-95
2022/12/19 04:17:48;;;;;;;19.95;9.68;;;1.60;99.90;;;;;;6252415;22;20457;-93
2022/12/19 04:20:19;;;;;;;17.35;8.55;;;1.60;99.90;;;;;;6254726;22;20094;-93
2022/12/19 04:22:48;;;;;;;22.73;8.85;;;1.60;99.90;;;;;;6252023;22;20020;-96
2022/12/19 04:25:18;;;;;;;21.65;10.32;;;1.60;99.90;;;;;;6251775;22;20019;-96
2022/12/19 04:27:56;;;;;;;24.40;10.23;;;1.70;99.90;;;;;;6251781;22;20050;-94
2022/12/19 04:30:25;;;;;;;22.42;9.02;;;1.70;99.90;;;;;;6252449;22;20020;-96
2022/12/19 04:32:52;;;;;;;19.70;9.25;;;1.80;99.90;;;;;;6251932;22;20092;-92
2022/12/19 04:35:47;;;;;;;;;;;1.80;99.90;;;;;;6253604;22;20623;-95
2022/12/19 04:38:19;;;;;;;21.33;9.38;;;1.90;99.90;;;;;;6259223;22;19915;-95
2022/12/19 04:40:45;;;;;;;20.73;9.50;;;1.90;99.90;;;;;;6256437;22;20433;-94
2022/12/19 04:43:10;;;;;;;22.80;10.00;;;1.90;99.90;;;;;;6252328;22;20023;-93
2022/12/19 04:45:36;;;;;;;21.55;9.93;;;1.90;99.90;;;;;;6227464;22;20018;-96
2022/12/19 04:48:03;;;;;;;23.43;10.43;;;2.00;99.90;;;;;;6252749;22;20015;-94
2022/12/19 05:06:10;;;;;;;23.13;10.18;;;2.20;99.90;;;;;;6277431;22;20027;-95
2022/12/19 05:08:43;;;;;;;20.00;9.32;;;2.20;99.90;;;;;;6251101;22;20074;-94
2022/12/19 05:11:21;;;;;;;23.60;9.15;;;2.20;99.90;;;;;;6251273;22;20016;-92
2022/12/19 05:14:08;;;;;;;27.58;11.40;;;2.30;99.90;;;;;;6251201;22;20015;-93
2022/12/19 05:16:36;;;;;;;24.25;10.85;;;2.30;99.90;;;;;;6251238;22;20022;-96
2022/12/19 05:19:01;;;;;;;26.23;10.70;;;2.30;99.90;;;;;;6251147;22;20071;-92
2022/12/19 05:21:33;;;;;;;22.67;10.85;;;2.30;99.90;;;;;;6251163;22;20023;-92
2022/12/19 05:23:59;;;;;;;23.30;11.50;;;2.30;99.90;;;;;;6223849;22;20023;-95
2022/12/19 05:26:25;;;;;;;23.85;10.45;;;2.40;99.90;;;;;;6251553;22;20011;-96
2022/12/19 05:28:53;;;;;;;22.77;10.25;;;2.40;99.90;;;;;;6252325;22;20018;-92
2022/12/19 05:31:21;;;;;;;22.63;9.93;;;2.40;99.90;;;;;;6226452;22;20449;-91
2022/12/19 05:33:50;;;;;;;20.33;10.15;;;2.40;99.90;;;;;;6253081;22;20027;-94
2022/12/19 05:36:17;;;;;;;26.17;11.50;;;2.40;99.90;;;;;;6227883;22;20016;-94
2022/12/19 05:39:04;;;;;;;20.02;9.80;;;2.40;99.90;;;;;;6252892;22;20376;-94
2022/12/19 05:41:32;;;;;;;21.10;9.82;;;2.40;99.90;;;;;;6252388;22;20055;-96
2022/12/19 05:43:58;;;;;;;25.17;10.45;;;2.50;99.90;;;;;;6228151;22;20012;-95
2022/12/19 05:46:27;;;;;;;19.23;8.93;;;2.50;99.90;;;;;;6252336;22;20345;-96
2022/12/19 05:48:54;;;;;;;23.15;10.07;;;2.50;99.90;;;;;;6253915;22;20010;-91
2022/12/19 05:51:20;;;;;;;21.10;10.88;;;2.50;99.90;;;;;;6279229;22;20035;-95
2022/12/19 05:53:46;;;;;;;21.40;10.20;;;2.50;99.90;;;;;;6253580;22;20429;-93
2022/12/19 05:56:14;;;;;;;18.33;8.55;;;2.50;99.90;;;;;;6251461;22;20059;-93
2022/12/19 05:58:42;;;;;;;21.55;9.35;;;2.50;99.90;;;;;;6250690;22;20020;-95
2022/12/19 06:01:29;;;;;;;18.70;8.82;;;2.60;99.90;;;;;;6251439;22;20016;-95
2022/12/19 06:03:55;;;;;;;18.10;8.35;;;2.60;99.90;;;;;;6250720;22;20038;-94
2022/12/19 06:06:23;;;;;;;20.25;8.77;;;2.60;99.90;;;;;;6252941;22;20050;-95
2022/12/19 06:08:54;;;;;;;17.70;7.75;;;2.60;99.90;;;;;;6252635;22;20475;-94
2022/12/19 06:11:26;;;;;;;16.38;8.55;;;2.60;99.90;;;;;;6253127;22;20020;-94
2022/12/19 06:13:52;;;;;;;15.52;7.88;;;2.60;99.90;;;;;;6278272;22;20110;-95
2022/12/19 06:16:19;;;;;;;18.13;8.15;;;2.70;99.90;;;;;;6251897;22;20016;-96
2022/12/19 06:18:46;;;;;;;16.77;7.95;;;2.70;99.90;;;;;;6251847;22;20026;-96
2022/12/19 06:21:17;;;;;;;17.33;9.07;;;2.70;99.90;;;;;;6251270;22;20465;-96
2022/12/19 06:23:49;;;;;;;17.98;7.97;;;2.70;99.90;;;;;;6250769;22;20061;-94
2022/12/19 06:26:19;;;;;;;16.10;7.38;;;2.70;99.90;;;;;;6251146;22;20015;-96
2022/12/19 06:28:46;;;;;;;14.98;6.88;;;2.70;99.90;;;;;;6250886;22;20015;-94
2022/12/19 06:31:13;;;;;;;16.98;7.38;;;2.80;99.90;;;;;;6251478;22;20098;-96
2022/12/19 06:33:57;;;;;;;18.05;7.80;;;2.80;99.90;;;;;;6255570;22;20020;-93
2022/12/19 06:36:30;;;;;;;18.88;6.60;;;2.80;99.90;;;;;;6259214;22;20016;-92
2022/12/19 06:38:57;;;;;;;17.35;7.22;;;2.80;99.90;;;;;;6279120;22;20016;-92
2022/12/19 06:44:12;;;;;;;15.32;6.85;;;2.90;99.90;;;;;;6280059;22;20016;-90
2022/12/19 06:46:38;;;;;;;;;;;2.90;99.90;;;;;;6251969;22;20015;-93
2022/12/19 06:49:04;;;;;;;13.20;6.45;;;2.90;99.90;;;;;;6249736;22;19917;-96
2022/12/19 06:51:30;;;;;;;15.52;6.93;;;3.00;99.90;;;;;;6253135;22;20377;-95
2022/12/19 06:53:56;;;;;;;16.00;6.93;;;3.00;99.90;;;;;;6255729;22;20016;-94
2022/12/19 06:56:22;;;;;;;13.02;6.45;;;3.00;99.90;;;;;;6254315;22;20137;-94
2022/12/19 06:58:48;;;;;;;11.55;5.60;;;3.00;99.90;;;;;;6253361;22;20016;-94
2022/12/19 07:01:19;;;;;;;15.37;7.40;;;3.00;99.90;;;;;;6253875;22;20050;-96
2022/12/19 07:03:47;;;;;;;15.45;6.57;;;3.10;99.90;;;;;;6255136;22;20262;-94
2022/12/19 07:06:13;;;;;;;14.93;6.20;;;3.10;99.90;;;;;;6254197;22;20055;-96
2022/12/19 07:08:39;;;;;;;13.68;6.50;;;3.20;99.90;;;;;;6252772;22;20026;-96
2022/12/19 07:11:04;;;;;;;12.47;5.90;;;3.20;99.90;;;;;;6226968;22;20033;-94
2022/12/19 07:13:33;;;;;;;11.70;5.40;;;3.20;99.90;;;;;;6252857;22;20509;-96
2022/12/19 07:16:02;;;;;;;11.77;5.55;;;3.20;99.90;;;;;;6254626;22;20089;-95
2022/12/19 07:18:30;;;;;;;12.75;6.40;;;3.30;99.90;;;;;;6261572;22;20326;-96
2022/12/19 07:20:56;;;;;;;11.57;4.88;;;3.40;99.90;;;;;;6258438;22;20020;-94
2022/12/19 07:28:26;;;;;;;11.25;4.20;;;3.40;99.90;;;;;;6286972;22;20023;-96
2022/12/19 07:30:54;;;;;;;10.33;4.20;;;3.50;99.90;;;;;;6206275;22;20424;-91
2022/12/19 07:35:56;;;;;;;13.15;5.18;;;3.60;99.90;;;;;;6284229;22;20023;-93
2022/12/19 07:38:21;;;;;;;20.55;10.85;;;3.60;99.90;;;;;;6281078;22;20494;-92
2022/12/19 07:40:50;;;;;;;15.57;7.10;;;3.60;99.90;;;;;;6256147;22;20007;-92
2022/12/19 07:43:16;;;;;;;22.40;9.40;;;3.60;99.90;;;;;;6281903;22;20292;-89
2022/12/19 07:45:42;;;;;;;11.90;6.88;;;3.60;99.90;;;;;;6231060;22;20080;-92
2022/12/19 07:48:08;;;;;;;28.02;21.70;;;3.60;99.90;;;;;;6282076;22;20016;-90
2022/12/19 08:35:18;;;;;;;18.88;8.35;;;4.20;99.90;;;;;;6327387;22;20018;-94
2022/12/19 08:37:44;;;;;;;19.30;10.13;;;4.20;99.90;;;;;;6262017;22;20018;-93
2022/12/19 08:40:20;;;;;;;16.35;8.05;;;4.30;99.90;;;;;;6286895;22;20006;-89
2022/12/19 08:43:04;;;;;;;8.90;3.80;;;4.30;99.90;;;;;;6263531;22;20015;-95
